Time;durP1;ratioP1;P1;durP2;ratioP2;P2;SDS_P1;SDS_P2;PMS_P1;PMS_P2;Temp;Humidity;BMP_temperature;BMP_pressure;BME280_temperature;BME280_humidity;BME280_pressure;Samples;Min_cycle;Max_cycle;Signal;HPM_P1;HPM_P2
2023/12/17 00:01:02;;;;;;;36.03;33.97;;;;;;;;;;5030106;28;20029;-58
2023/12/17 00:03:27;;;;;;;37.28;35.25;;;;;;;;;;5030279;28;20156;-57
2023/12/17 00:05:53;;;;;;;35.10;33.25;;;;;;;;;;5028161;28;20029;-58
2023/12/17 00:08:20;;;;;;;33.42;31.65;;;;;;;;;;5043917;28;20032;-58
2023/12/17 00:10:54;;;;;;;36.53;34.63;;;;;;;;;;5032755;28;20037;-58
2023/12/17 00:13:19;;;;;;;35.33;33.45;;;;;;;;;;5028150;28;20040;-58
2023/12/17 00:15:45;;;;;;;34.45;32.45;;;;;;;;;;5026997;28;20052;-58
2023/12/17 00:18:11;;;;;;;34.28;32.38;;;;;;;;;;5031349;28;20497;-58
2023/12/17 00:20:37;;;;;;;34.75;32.67;;;;;;;;;;5028874;28;20747;-57
2023/12/17 00:23:04;;;;;;;33.53;31.65;;;;;;;;;;5029957;28;20123;-58
2023/12/17 00:25:30;;;;;;;32.33;30.52;;;;;;;;;;5034135;28;20048;-58
2023/12/17 00:27:55;;;;;;;31.85;30.17;;;;;;;;;;5030429;28;20374;-57
2023/12/17 00:30:20;;;;;;;30.42;28.77;;;;;;;;;;5036351;28;20103;-59
2023/12/17 00:32:46;;;;;;;33.45;31.55;;;;;;;;;;5034477;28;20466;-59
2023/12/17 00:35:11;;;;;;;32.75;30.95;;;;;;;;;;5031189;28;20486;-60
2023/12/17 00:37:36;;;;;;;33.80;31.50;;;;;;;;;;5033830;28;20120;-59
2023/12/17 00:40:02;;;;;;;33.33;31.48;;;;;;;;;;5030514;28;20040;-59
2023/12/17 00:42:27;;;;;;;34.00;32.08;;;;;;;;;;5027339;28;20075;-59
2023/12/17 00:44:53;;;;;;;33.90;32.03;;;;;;;;;;5028608;28;20470;-59
2023/12/17 00:47:18;;;;;;;34.38;32.53;;;;;;;;;;5030546;28;20106;-59
2023/12/17 00:49:43;;;;;;;35.08;33.13;;;;;;;;;;5028582;28;20037;-59
2023/12/17 00:52:09;;;;;;;33.85;31.98;;;;;;;;;;5033723;28;20463;-59
2023/12/17 00:54:34;;;;;;;34.33;32.45;;;;;;;;;;5033026;28;20037;-58
2023/12/17 00:56:59;;;;;;;31.88;30.13;;;;;;;;;;5031264;28;20275;-59
2023/12/17 00:59:25;;;;;;;31.70;30.02;;;;;;;;;;5033882;28;20037;-59
2023/12/17 01:01:53;;;;;;;33.72;31.83;;;;;;;;;;5031435;28;20029;-59
2023/12/17 01:04:18;;;;;;;35.83;33.03;;;;;;;;;;5031713;28;20102;-59
2023/12/17 01:06:44;;;;;;;32.70;30.90;;;;;;;;;;5028774;28;20036;-59
2023/12/17 01:09:10;;;;;;;33.53;31.73;;;;;;;;;;5033959;28;20029;-59
2023/12/17 01:11:36;;;;;;;34.78;32.78;;;;;;;;;;5030133;28;20029;-60
2023/12/17 01:14:01;;;;;;;35.15;33.10;;;;;;;;;;5032584;28;20029;-59
2023/12/17 01:16:27;;;;;;;34.03;31.92;;;;;;;;;;5033598;28;20378;-59
2023/12/17 01:18:52;;;;;;;33.28;31.42;;;;;;;;;;5029316;28;20037;-59
2023/12/17 01:21:17;;;;;;;32.03;29.92;;;;;;;;;;5031020;28;20037;-59
2023/12/17 01:23:43;;;;;;;33.70;31.80;;;;;;;;;;5030724;28;20043;-59
2023/12/17 01:26:20;;;;;;;33.30;31.50;;;;;;;;;;5036370;28;20414;-58
2023/12/17 01:28:48;;;;;;;31.63;29.98;;;;;;;;;;5034623;28;20093;-60
2023/12/17 01:31:13;;;;;;;33.60;31.70;;;;;;;;;;5032862;28;20037;-59
2023/12/17 01:33:39;;;;;;;33.42;31.52;;;;;;;;;;5031769;28;20037;-57
2023/12/17 01:36:04;;;;;;;34.42;32.40;;;;;;;;;;5029276;28;20087;-60
2023/12/17 01:38:30;;;;;;;32.25;30.50;;;;;;;;;;5029587;28;20084;-60
2023/12/17 01:40:55;;;;;;;34.30;32.20;;;;;;;;;;5028157;28;20041;-58
2023/12/17 01:43:20;;;;;;;32.42;30.70;;;;;;;;;;5030533;28;20036;-57
2023/12/17 01:45:48;;;;;;;33.50;31.50;;;;;;;;;;5028911;28;20068;-57
2023/12/17 01:48:13;;;;;;;33.72;31.48;;;;;;;;;;5029896;28;20055;-57
2023/12/17 01:50:39;;;;;;;32.30;30.48;;;;;;;;;;5031448;28;20034;-58
2023/12/17 01:53:04;;;;;;;33.38;31.42;;;;;;;;;;5025356;28;20029;-57
2023/12/17 01:55:30;;;;;;;33.42;31.63;;;;;;;;;;5029376;28;20576;-57
2023/12/17 01:57:57;;;;;;;34.38;32.58;;;;;;;;;;5028034;28;20033;-58
2023/12/17 02:00:24;;;;;;;35.67;33.67;;;;;;;;;;5028652;28;20040;-58
2023/12/17 02:02:49;;;;;;;37.58;35.38;;;;;;;;;;5028426;28;20053;-58
2023/12/17 02:05:15;;;;;;;34.65;32.80;;;;;;;;;;5027593;28;20088;-58
2023/12/17 02:07:41;;;;;;;37.05;34.88;;;;;;;;;;5026874;28;20091;-58
2023/12/17 02:10:06;;;;;;;34.30;32.40;;;;;;;;;;5026042;28;20039;-57
2023/12/17 02:12:32;;;;;;;36.90;34.30;;;;;;;;;;5025616;28;20037;-58
2023/12/17 02:14:57;;;;;;;36.55;34.50;;;;;;;;;;5030262;28;20071;-57
2023/12/17 02:17:28;;;;;;;36.53;34.42;;;;;;;;;;5029504;28;20132;-58
2023/12/17 02:19:54;;;;;;;36.28;34.28;;;;;;;;;;5026161;28;20038;-58
2023/12/17 02:22:21;;;;;;;36.05;34.00;;;;;;;;;;5030072;28;20136;-57
2023/12/17 02:24:47;;;;;;;39.15;36.95;;;;;;;;;;5029226;28;20443;-58
2023/12/17 02:27:19;;;;;;;37.13;34.72;;;;;;;;;;5027291;28;20049;-58
2023/12/17 02:29:44;;;;;;;38.95;36.63;;;;;;;;;;5029173;28;20030;-60
2023/12/17 02:32:10;;;;;;;35.75;33.33;;;;;;;;;;5028777;28;20087;-59
2023/12/17 02:34:35;;;;;;;37.70;35.53;;;;;;;;;;5028560;28;20038;-59
2023/12/17 02:37:00;;;;;;;37.15;35.15;;;;;;;;;;5029202;28;20633;-58
2023/12/17 02:39:26;;;;;;;36.65;34.72;;;;;;;;;;5030182;28;20029;-59
2023/12/17 02:41:51;;;;;;;35.55;33.65;;;;;;;;;;5028020;28;20107;-60
2023/12/17 02:44:16;;;;;;;35.85;33.85;;;;;;;;;;5031309;28;20042;-58
2023/12/17 02:46:42;;;;;;;35.67;33.65;;;;;;;;;;5027096;28;20418;-58
2023/12/17 02:49:07;;;;;;;35.58;33.58;;;;;;;;;;5027065;28;20413;-58
2023/12/17 02:51:32;;;;;;;34.95;33.05;;;;;;;;;;5029430;28;20744;-59
2023/12/17 02:53:58;;;;;;;34.38;32.47;;;;;;;;;;5032578;28;20060;-58
2023/12/17 02:56:23;;;;;;;35.50;33.47;;;;;;;;;;5025606;28;20032;-59
2023/12/17 02:58:48;;;;;;;35.13;33.22;;;;;;;;;;5028420;28;20048;-58
2023/12/17 03:01:13;;;;;;;37.55;35.30;;;;;;;;;;5027649;28;20041;-59
2023/12/17 03:03:39;;;;;;;34.63;32.83;;;;;;;;;;5029754;28;20044;-58
2023/12/17 03:06:04;;;;;;;35.80;33.88;;;;;;;;;;5026606;28;20858;-59
2023/12/17 03:08:30;;;;;;;37.17;34.92;;;;;;;;;;5027097;28;20095;-59
2023/12/17 03:10:55;;;;;;;35.15;33.03;;;;;;;;;;5024251;28;20044;-59
2023/12/17 03:13:20;;;;;;;35.17;32.92;;;;;;;;;;5028262;28;20041;-59
2023/12/17 03:15:46;;;;;;;36.42;34.53;;;;;;;;;;5030172;28;20033;-59
2023/12/17 03:18:11;;;;;;;38.20;36.00;;;;;;;;;;5030386;28;20444;-58
2023/12/17 03:20:37;;;;;;;36.80;34.90;;;;;;;;;;5033207;28;20037;-59
2023/12/17 03:23:02;;;;;;;35.50;33.53;;;;;;;;;;5033705;28;20103;-58
2023/12/17 03:25:27;;;;;;;40.17;37.95;;;;;;;;;;5033596;28;20043;-59
2023/12/17 03:27:53;;;;;;;36.70;34.42;;;;;;;;;;5031223;28;20048;-58
2023/12/17 03:30:18;;;;;;;40.20;37.28;;;;;;;;;;5032235;28;20022;-59
2023/12/17 03:32:44;;;;;;;34.28;32.13;;;;;;;;;;5032171;28;20041;-59
2023/12/17 03:35:09;;;;;;;37.47;35.50;;;;;;;;;;5027506;28;20032;-58
2023/12/17 03:37:34;;;;;;;38.33;36.17;;;;;;;;;;5033589;28;20060;-58
2023/12/17 03:40:00;;;;;;;32.85;31.05;;;;;;;;;;5034708;28;20112;-58
2023/12/17 03:42:25;;;;;;;34.33;32.33;;;;;;;;;;5031238;28;20045;-58
2023/12/17 03:44:50;;;;;;;33.90;32.05;;;;;;;;;;5032149;28;20129;-59
2023/12/17 03:47:15;;;;;;;33.40;31.60;;;;;;;;;;5014666;28;20029;-59
2023/12/17 03:49:41;;;;;;;34.13;32.33;;;;;;;;;;5030716;28;20061;-59
2023/12/17 03:52:06;;;;;;;35.05;33.05;;;;;;;;;;5032830;28;20420;-59
2023/12/17 03:54:31;;;;;;;34.53;32.60;;;;;;;;;;5033421;28;20040;-58
2023/12/17 03:56:57;;;;;;;34.30;31.90;;;;;;;;;;5031209;28;20042;-59
2023/12/17 03:59:23;;;;;;;35.92;33.53;;;;;;;;;;5027046;28;20032;-58
2023/12/17 04:01:48;;;;;;;32.50;30.80;;;;;;;;;;5034542;28;20060;-58
2023/12/17 04:04:14;;;;;;;32.83;31.05;;;;;;;;;;5032424;28;20034;-58
2023/12/17 04:06:43;;;;;;;31.63;29.90;;;;;;;;;;5034077;28;20387;-60
2023/12/17 04:09:10;;;;;;;33.53;31.67;;;;;;;;;;5030969;28;20425;-58
2023/12/17 04:11:35;;;;;;;31.42;29.52;;;;;;;;;;5032908;28;20462;-58
2023/12/17 04:14:01;;;;;;;33.58;31.40;;;;;;;;;;5030957;28;20106;-58
2023/12/17 04:16:26;;;;;;;34.47;32.55;;;;;;;;;;5030631;28;20099;-58
2023/12/17 04:18:52;;;;;;;33.80;31.90;;;;;;;;;;5030101;28;20028;-58
2023/12/17 04:21:17;;;;;;;32.97;31.17;;;;;;;;;;5029740;28;20036;-58
2023/12/17 04:23:44;;;;;;;32.97;31.02;;;;;;;;;;5033202;28;20055;-59
2023/12/17 04:26:11;;;;;;;32.22;30.50;;;;;;;;;;5030665;28;20034;-58
2023/12/17 04:28:36;;;;;;;35.13;33.13;;;;;;;;;;5030622;28;20486;-58
2023/12/17 04:31:02;;;;;;;33.50;31.60;;;;;;;;;;5029811;28;20438;-58
2023/12/17 04:33:27;;;;;;;34.83;32.80;;;;;;;;;;5030098;28;20259;-57
2023/12/17 04:35:52;;;;;;;33.92;32.13;;;;;;;;;;5028057;28;20029;-59
2023/12/17 04:38:18;;;;;;;35.78;33.75;;;;;;;;;;5030032;28;20474;-58
2023/12/17 04:40:45;;;;;;;33.22;31.17;;;;;;;;;;5024749;28;20026;-58
2023/12/17 04:43:11;;;;;;;34.70;32.83;;;;;;;;;;5029069;28;20040;-58
2023/12/17 04:45:36;;;;;;;33.92;31.83;;;;;;;;;;5032195;28;20489;-57
2023/12/17 04:48:01;;;;;;;34.25;32.35;;;;;;;;;;5030679;28;20033;-57
2023/12/17 04:50:27;;;;;;;35.58;33.67;;;;;;;;;;5027909;28;20033;-56
2023/12/17 04:52:52;;;;;;;34.35;32.40;;;;;;;;;;5029282;28;20029;-57
2023/12/17 04:55:17;;;;;;;34.63;32.72;;;;;;;;;;5026048;28;20052;-58
2023/12/17 04:57:43;;;;;;;37.58;35.53;;;;;;;;;;5029235;28;20033;-58
2023/12/17 05:00:09;;;;;;;37.03;34.83;;;;;;;;;;5031576;28;20342;-58
2023/12/17 05:02:34;;;;;;;37.63;35.40;;;;;;;;;;5031718;28;20041;-59
2023/12/17 05:05:00;;;;;;;37.88;35.83;;;;;;;;;;5029706;28;20057;-59
2023/12/17 05:07:25;;;;;;;35.00;33.03;;;;;;;;;;5031014;28;20106;-58
2023/12/17 05:09:52;;;;;;;36.92;34.90;;;;;;;;;;5028039;28;20465;-59
2023/12/17 05:12:18;;;;;;;36.40;34.30;;;;;;;;;;5029007;28;20095;-58
2023/12/17 05:14:43;;;;;;;35.53;33.40;;;;;;;;;;5031545;28;20032;-58
2023/12/17 05:17:08;;;;;;;33.15;31.33;;;;;;;;;;5027648;28;20052;-58
2023/12/17 05:19:34;;;;;;;33.30;31.50;;;;;;;;;;5029581;28;20038;-59
2023/12/17 05:21:59;;;;;;;36.60;34.33;;;;;;;;;;5032983;28;20038;-59
2023/12/17 05:24:24;;;;;;;36.13;34.05;;;;;;;;;;5031485;28;20120;-58
2023/12/17 05:26:50;;;;;;;35.45;33.25;;;;;;;;;;5028480;28;20040;-58
2023/12/17 05:29:15;;;;;;;33.20;31.38;;;;;;;;;;5032586;28;20029;-60
2023/12/17 05:31:41;;;;;;;35.47;33.53;;;;;;;;;;5031235;28;20124;-59
2023/12/17 05:34:08;;;;;;;35.42;33.53;;;;;;;;;;5026677;28;20124;-57
2023/12/17 05:36:34;;;;;;;33.28;31.10;;;;;;;;;;5027799;28;20087;-58
2023/12/17 05:39:00;;;;;;;34.00;32.05;;;;;;;;;;5027661;28;20033;-58
2023/12/17 05:41:25;;;;;;;34.58;32.58;;;;;;;;;;5010927;28;20393;-58
2023/12/17 05:43:51;;;;;;;35.55;33.60;;;;;;;;;;5030864;28;20078;-57
2023/12/17 05:46:16;;;;;;;35.88;33.30;;;;;;;;;;5032489;28;20072;-58
2023/12/17 05:48:41;;;;;;;33.70;31.88;;;;;;;;;;5030680;28;20345;-58
2023/12/17 05:51:08;;;;;;;33.03;31.30;;;;;;;;;;5026685;28;20034;-58
2023/12/17 05:53:33;;;;;;;33.40;31.30;;;;;;;;;;5026476;28;20447;-58
2023/12/17 05:56:00;;;;;;;35.58;33.15;;;;;;;;;;5031791;28;20039;-59
2023/12/17 05:58:25;;;;;;;32.00;30.20;;;;;;;;;;5027993;28;20056;-58
2023/12/17 06:00:51;;;;;;;33.38;31.58;;;;;;;;;;5030463;28;20356;-59
2023/12/17 06:03:16;;;;;;;33.53;31.17;;;;;;;;;;5028884;28;20052;-59
2023/12/17 06:05:41;;;;;;;32.85;31.13;;;;;;;;;;5027014;28;20030;-59
2023/12/17 06:08:07;;;;;;;32.75;30.92;;;;;;;;;;5028379;28;20041;-58
2023/12/17 06:10:32;;;;;;;35.05;33.10;;;;;;;;;;5029971;28;20028;-59
2023/12/17 06:12:58;;;;;;;33.60;31.80;;;;;;;;;;5030382;28;20041;-58
2023/12/17 06:15:23;;;;;;;36.38;34.38;;;;;;;;;;5029084;28;20028;-57
2023/12/17 06:17:48;;;;;;;33.25;31.30;;;;;;;;;;5030624;28;20168;-59
2023/12/17 06:20:14;;;;;;;33.33;31.52;;;;;;;;;;5028202;28;20083;-57
2023/12/17 06:22:40;;;;;;;33.42;31.60;;;;;;;;;;5029475;28;20522;-58
2023/12/17 06:25:05;;;;;;;34.72;32.78;;;;;;;;;;5027066;28;20041;-58
2023/12/17 06:27:31;;;;;;;35.15;33.20;;;;;;;;;;5028372;28;20037;-59
2023/12/17 06:29:57;;;;;;;36.35;34.17;;;;;;;;;;5027123;28;20091;-59
2023/12/17 06:32:22;;;;;;;36.83;34.75;;;;;;;;;;5031022;28;20141;-59
2023/12/17 06:34:47;;;;;;;36.63;34.58;;;;;;;;;;5025733;28;20033;-59
2023/12/17 06:37:13;;;;;;;35.45;33.53;;;;;;;;;;5031965;28;20124;-59
2023/12/17 06:39:42;;;;;;;34.20;32.05;;;;;;;;;;5028308;28;20433;-58
2023/12/17 06:42:09;;;;;;;36.40;34.17;;;;;;;;;;5024876;28;20030;-58
2023/12/17 06:44:34;;;;;;;35.20;33.10;;;;;;;;;;5032776;28;20439;-58
2023/12/17 06:46:59;;;;;;;34.25;32.15;;;;;;;;;;5030037;28;20044;-58
2023/12/17 06:49:24;;;;;;;36.67;34.47;;;;;;;;;;5035971;28;20033;-58
2023/12/17 06:51:50;;;;;;;33.85;31.92;;;;;;;;;;5032158;28;20029;-57
2023/12/17 06:54:15;;;;;;;35.60;33.70;;;;;;;;;;5037704;28;20902;-58
2023/12/17 06:56:42;;;;;;;34.47;32.50;;;;;;;;;;5034825;28;20117;-57
2023/12/17 06:59:07;;;;;;;35.58;32.95;;;;;;;;;;5037728;28;20037;-59
2023/12/17 07:01:33;;;;;;;34.15;32.08;;;;;;;;;;5034441;28;20528;-57
2023/12/17 07:03:58;;;;;;;33.22;31.40;;;;;;;;;;5034248;28;20033;-58
2023/12/17 07:06:23;;;;;;;34.88;32.65;;;;;;;;;;5037157;28;20123;-59
2023/12/17 07:08:49;;;;;;;33.03;31.20;;;;;;;;;;5031997;28;20164;-58
2023/12/17 07:11:14;;;;;;;37.50;34.67;;;;;;;;;;5031473;28;20029;-58
2023/12/17 07:13:40;;;;;;;36.20;33.85;;;;;;;;;;5031318;28;20120;-59
2023/12/17 07:16:06;;;;;;;31.73;29.88;;;;;;;;;;5035350;28;20051;-58
2023/12/17 07:18:31;;;;;;;33.25;31.42;;;;;;;;;;5032698;28;20072;-59
2023/12/17 07:20:56;;;;;;;33.28;31.48;;;;;;;;;;5031789;28;20140;-57
2023/12/17 07:23:24;;;;;;;32.58;30.77;;;;;;;;;;5032926;28;20033;-56
2023/12/17 07:25:50;;;;;;;33.85;31.77;;;;;;;;;;5033871;28;20528;-59
2023/12/17 07:28:15;;;;;;;35.42;33.08;;;;;;;;;;5034147;28;20116;-59
2023/12/17 07:30:41;;;;;;;32.03;30.23;;;;;;;;;;5033912;28;20106;-61
2023/12/17 07:33:08;;;;;;;31.52;29.83;;;;;;;;;;5033071;28;20021;-58
2023/12/17 07:35:33;;;;;;;31.95;30.15;;;;;;;;;;5033922;28;20049;-58
2023/12/17 07:37:58;;;;;;;32.30;30.38;;;;;;;;;;5035590;28;20797;-59
2023/12/17 07:40:24;;;;;;;33.55;31.65;;;;;;;;;;5031413;28;20033;-58
2023/12/17 07:42:49;;;;;;;31.00;29.33;;;;;;;;;;5035864;28;20107;-58
2023/12/17 07:45:15;;;;;;;31.35;29.60;;;;;;;;;;5029519;28;20048;-58
2023/12/17 07:47:40;;;;;;;33.47;31.45;;;;;;;;;;5030149;28;20065;-58
2023/12/17 07:50:06;;;;;;;33.55;31.52;;;;;;;;;;5032773;28;20041;-59
2023/12/17 07:52:31;;;;;;;33.88;31.88;;;;;;;;;;5032591;28;20048;-58
2023/12/17 07:54:56;;;;;;;31.20;29.58;;;;;;;;;;5033928;28;20020;-57
2023/12/17 07:57:22;;;;;;;34.35;32.35;;;;;;;;;;5033387;28;20482;-58
2023/12/17 07:59:47;;;;;;;30.88;28.95;;;;;;;;;;5029902;28;20120;-57
2023/12/17 08:02:17;;;;;;;31.42;29.70;;;;;;;;;;5031134;28;20242;-55
2023/12/17 08:04:43;;;;;;;31.10;29.30;;;;;;;;;;5032349;28;20090;-59
2023/12/17 08:07:10;;;;;;;30.70;29.00;;;;;;;;;;5034331;28;20447;-59
2023/12/17 08:09:35;;;;;;;28.48;26.88;;;;;;;;;;5034163;28;21102;-57
2023/12/17 08:12:01;;;;;;;29.70;28.02;;;;;;;;;;5032057;28;20059;-56
2023/12/17 08:14:26;;;;;;;28.98;27.42;;;;;;;;;;5034367;28;20581;-57
2023/12/17 08:16:51;;;;;;;29.75;28.08;;;;;;;;;;5030752;28;20060;-57
2023/12/17 08:19:17;;;;;;;31.10;29.42;;;;;;;;;;5029249;28;20029;-57
2023/12/17 08:21:42;;;;;;;29.52;27.92;;;;;;;;;;5030118;28;20045;-58
2023/12/17 08:24:08;;;;;;;30.67;28.73;;;;;;;;;;5031414;28;20106;-58
2023/12/17 08:26:33;;;;;;;28.65;26.92;;;;;;;;;;5029572;28;20496;-57
2023/12/17 08:28:59;;;;;;;30.70;28.95;;;;;;;;;;5026906;28;20029;-59
2023/12/17 08:31:24;;;;;;;28.70;27.10;;;;;;;;;;5029090;28;20022;-59
2023/12/17 08:33:52;;;;;;;29.38;27.67;;;;;;;;;;5029345;28;20033;-59
2023/12/17 08:36:18;;;;;;;29.90;28.20;;;;;;;;;;5028328;28;20171;-59
2023/12/17 08:38:45;;;;;;;29.80;28.20;;;;;;;;;;5029156;28;20493;-59
2023/12/17 08:41:14;;;;;;;29.83;28.15;;;;;;;;;;5030530;28;20063;-59
2023/12/17 08:43:40;;;;;;;32.40;30.20;;;;;;;;;;5028758;28;20067;-59
2023/12/17 08:46:06;;;;;;;32.83;30.40;;;;;;;;;;5028663;28;20103;-59
2023/12/17 08:48:31;;;;;;;34.40;32.20;;;;;;;;;;5027557;28;20499;-59
2023/12/17 08:50:57;;;;;;;29.80;28.13;;;;;;;;;;5029937;28;20104;-59
2023/12/17 08:53:23;;;;;;;33.20;31.00;;;;;;;;;;5031130;28;20044;-59
2023/12/17 08:55:51;;;;;;;32.35;30.30;;;;;;;;;;5031560;28;20044;-59
2023/12/17 08:58:16;;;;;;;31.65;29.90;;;;;;;;;;5027663;28;20455;-59
2023/12/17 09:00:42;;;;;;;32.30;30.00;;;;;;;;;;5032741;28;20055;-58
2023/12/17 09:03:07;;;;;;;30.20;28.55;;;;;;;;;;5032207;28;20348;-58
2023/12/17 09:05:32;;;;;;;31.67;29.63;;;;;;;;;;5028909;28;20045;-59
2023/12/17 09:07:58;;;;;;;30.90;29.20;;;;;;;;;;5028488;28;20025;-58
2023/12/17 09:10:24;;;;;;;30.52;28.75;;;;;;;;;;5028608;28;20060;-58
2023/12/17 09:12:50;;;;;;;32.58;30.80;;;;;;;;;;5027740;28;20606;-60
2023/12/17 09:15:15;;;;;;;33.55;31.50;;;;;;;;;;5032692;28;20478;-57
2023/12/17 09:17:44;;;;;;;35.70;33.40;;;;;;;;;;5032696;28;20073;-58
2023/12/17 09:20:10;;;;;;;32.15;30.15;;;;;;;;;;5032287;28;20029;-55
2023/12/17 09:22:36;;;;;;;29.85;28.17;;;;;;;;;;5031579;28;20048;-58
2023/12/17 09:25:01;;;;;;;33.72;31.77;;;;;;;;;;5033528;28;20030;-56
2023/12/17 09:27:27;;;;;;;31.42;29.70;;;;;;;;;;5027523;28;20037;-58
2023/12/17 09:29:52;;;;;;;32.33;30.45;;;;;;;;;;5026238;28;20038;-58
2023/12/17 09:32:17;;;;;;;33.13;31.20;;;;;;;;;;5031166;28;20036;-57
2023/12/17 09:34:43;;;;;;;33.55;31.50;;;;;;;;;;5024116;28;20026;-56
2023/12/17 09:37:08;;;;;;;34.45;32.20;;;;;;;;;;5030288;28;20439;-57
2023/12/17 09:39:34;;;;;;;36.30;33.67;;;;;;;;;;5028260;28;20065;-57
2023/12/17 09:42:00;;;;;;;33.55;31.70;;;;;;;;;;5030093;28;20140;-59
2023/12/17 09:44:27;;;;;;;33.67;31.60;;;;;;;;;;5027216;28;20112;-59
2023/12/17 09:46:52;;;;;;;35.50;33.00;;;;;;;;;;5031015;28;20039;-59
2023/12/17 09:49:17;;;;;;;37.22;34.72;;;;;;;;;;5030053;28;20033;-58
2023/12/17 09:51:47;;;;;;;37.42;35.13;;;;;;;;;;5027969;28;20033;-59
2023/12/17 09:54:12;;;;;;;37.20;34.95;;;;;;;;;;5032652;28;20657;-57
2023/12/17 09:56:38;;;;;;;40.97;38.35;;;;;;;;;;5029907;28;20045;-56
2023/12/17 09:59:03;;;;;;;40.88;38.58;;;;;;;;;;5031737;28;20048;-58
2023/12/17 10:01:29;;;;;;;41.42;38.50;;;;;;;;;;5027922;28;20032;-59
2023/12/17 10:03:56;;;;;;;39.55;36.72;;;;;;;;;;5024742;28;20106;-59
2023/12/17 10:06:21;;;;;;;41.38;38.53;;;;;;;;;;5030658;28;20329;-59
2023/12/17 10:08:47;;;;;;;37.10;34.97;;;;;;;;;;5028576;28;20020;-57
2023/12/17 10:11:15;;;;;;;34.08;31.95;;;;;;;;;;5032458;28;20721;-57
2023/12/17 10:13:41;;;;;;;36.85;34.15;;;;;;;;;;5029261;28;20124;-58
2023/12/17 10:16:06;;;;;;;34.97;32.63;;;;;;;;;;5029160;28;20055;-59
2023/12/17 10:18:33;;;;;;;39.63;36.88;;;;;;;;;;5030816;28;20513;-58
2023/12/17 10:20:58;;;;;;;35.05;32.97;;;;;;;;;;5022691;28;20026;-59
2023/12/17 10:23:23;;;;;;;40.60;37.92;;;;;;;;;;5032360;28;20052;-57
2023/12/17 10:25:59;;;;;;;38.17;35.75;;;;;;;;;;5034356;28;20102;-59
2023/12/17 10:28:25;;;;;;;35.10;32.60;;;;;;;;;;5034235;28;20538;-58
2023/12/17 10:30:50;;;;;;;34.88;32.88;;;;;;;;;;5032188;28;20125;-58
2023/12/17 10:33:22;;;;;;;35.05;32.95;;;;;;;;;;5036365;28;20041;-59
2023/12/17 10:35:48;;;;;;;35.03;32.47;;;;;;;;;;5035401;28;20033;-59
2023/12/17 10:38:14;;;;;;;33.90;31.90;;;;;;;;;;5033064;28;20120;-59
2023/12/17 10:40:41;;;;;;;34.22;32.03;;;;;;;;;;5033664;28;20044;-58
2023/12/17 10:43:07;;;;;;;35.53;33.47;;;;;;;;;;5035249;28;20589;-58
2023/12/17 10:45:34;;;;;;;37.00;34.90;;;;;;;;;;5033707;28;20044;-58
2023/12/17 10:48:01;;;;;;;37.38;34.67;;;;;;;;;;5038132;28;20033;-58
2023/12/17 10:50:27;;;;;;;33.80;31.50;;;;;;;;;;5035971;28;20442;-58
2023/12/17 10:52:53;;;;;;;37.67;35.17;;;;;;;;;;5032770;28;20143;-59
2023/12/17 10:55:20;;;;;;;36.42;33.70;;;;;;;;;;5029361;28;20458;-58
2023/12/17 10:58:06;;;;;;;34.38;32.22;;;;;;;;;;5032210;28;20041;-58
2023/12/17 11:00:33;;;;;;;34.00;31.85;;;;;;;;;;5033956;28;20044;-59
2023/12/17 11:03:02;;;;;;;34.58;32.40;;;;;;;;;;5032985;28;20116;-58
2023/12/17 11:05:27;;;;;;;36.58;34.38;;;;;;;;;;5036301;28;20032;-59
2023/12/17 11:07:53;;;;;;;36.47;34.13;;;;;;;;;;5033905;28;20447;-60
2023/12/17 11:10:18;;;;;;;37.97;35.42;;;;;;;;;;5033710;28;20086;-60
2023/12/17 11:12:47;;;;;;;40.70;38.28;;;;;;;;;;5031684;28;20351;-60
2023/12/17 11:15:13;;;;;;;39.60;37.10;;;;;;;;;;5032232;28;20362;-60
2023/12/17 11:17:40;;;;;;;42.45;39.97;;;;;;;;;;5031003;28;20033;-59
2023/12/17 11:20:06;;;;;;;44.55;41.15;;;;;;;;;;5033649;28;20942;-59
2023/12/17 11:22:38;;;;;;;40.70;38.17;;;;;;;;;;5034625;28;20215;-59
2023/12/17 11:25:06;;;;;;;41.65;38.42;;;;;;;;;;5031240;28;20037;-59
2023/12/17 11:27:32;;;;;;;39.75;37.55;;;;;;;;;;5033379;28;20036;-58
2023/12/17 11:29:57;;;;;;;42.30;39.92;;;;;;;;;;5030754;28;20620;-59
2023/12/17 11:32:27;;;;;;;42.88;40.13;;;;;;;;;;5034364;28;20025;-60
2023/12/17 11:34:53;;;;;;;43.15;40.60;;;;;;;;;;5031392;28;20036;-60
2023/12/17 11:37:22;;;;;;;44.85;42.08;;;;;;;;;;5033726;28;20113;-60
2023/12/17 11:39:49;;;;;;;43.55;40.92;;;;;;;;;;5033138;28;20378;-60
2023/12/17 11:42:16;;;;;;;41.92;39.17;;;;;;;;;;5031518;28;20059;-60
2023/12/17 11:44:45;;;;;;;47.30;44.00;;;;;;;;;;5043889;28;20048;-59
2023/12/17 11:47:15;;;;;;;46.30;43.28;;;;;;;;;;5029282;28;20049;-58
2023/12/17 11:49:40;;;;;;;47.83;44.95;;;;;;;;;;5032345;28;20095;-58
2023/12/17 11:52:14;;;;;;;52.80;49.50;;;;;;;;;;5031203;28;20552;-58
2023/12/17 11:54:42;;;;;;;47.90;45.05;;;;;;;;;;5033330;28;20120;-58
2023/12/17 11:57:21;;;;;;;43.03;40.53;;;;;;;;;;5031413;28;20133;-59
2023/12/17 11:59:47;;;;;;;44.20;41.60;;;;;;;;;;5032706;28;20033;-59
2023/12/17 12:02:17;;;;;;;45.10;42.63;;;;;;;;;;5032579;28;20021;-59
2023/12/17 12:04:43;;;;;;;44.05;41.70;;;;;;;;;;5028703;28;20118;-59
2023/12/17 12:07:10;;;;;;;44.50;41.95;;;;;;;;;;5035441;28;20149;-59
2023/12/17 12:09:35;;;;;;;48.88;46.03;;;;;;;;;;5033754;28;20028;-59
2023/12/17 12:12:01;;;;;;;49.55;46.22;;;;;;;;;;5031201;28;20037;-59
2023/12/17 12:14:26;;;;;;;47.20;44.10;;;;;;;;;;5034111;28;20037;-59
2023/12/17 12:16:54;;;;;;;48.67;45.38;;;;;;;;;;5031510;28;20482;-59
2023/12/17 12:19:20;;;;;;;46.38;43.53;;;;;;;;;;5032112;28;20044;-59
2023/12/17 12:21:50;;;;;;;44.72;41.92;;;;;;;;;;5032597;28;20033;-59
2023/12/17 12:24:20;;;;;;;47.70;44.78;;;;;;;;;;5033252;28;20037;-59
2023/12/17 12:26:46;;;;;;;49.85;46.53;;;;;;;;;;5034266;28;20025;-59
2023/12/17 12:29:12;;;;;;;47.80;44.90;;;;;;;;;;5036651;28;20466;-58
2023/12/17 12:31:38;;;;;;;48.83;45.80;;;;;;;;;;5032038;28;20033;-59
2023/12/17 12:34:04;;;;;;;46.20;43.20;;;;;;;;;;5030939;28;20335;-58
2023/12/17 12:36:44;;;;;;;51.67;48.30;;;;;;;;;;5032474;28;20029;-59
2023/12/17 12:39:10;;;;;;;44.30;41.53;;;;;;;;;;5031291;28;20037;-59
2023/12/17 12:41:36;;;;;;;42.28;39.80;;;;;;;;;;5030302;28;20052;-59
2023/12/17 12:44:03;;;;;;;42.53;40.13;;;;;;;;;;5030826;28;20049;-59
2023/12/17 12:46:29;;;;;;;44.13;41.63;;;;;;;;;;5031679;28;20363;-59
2023/12/17 12:48:55;;;;;;;48.63;45.38;;;;;;;;;;5028646;28;20534;-59
2023/12/17 12:51:21;;;;;;;46.33;43.45;;;;;;;;;;5027907;28;20040;-59
2023/12/17 12:53:47;;;;;;;46.65;44.08;;;;;;;;;;5027420;28;21205;-58
2023/12/17 12:56:12;;;;;;;43.92;41.28;;;;;;;;;;5028864;28;20041;-59
2023/12/17 12:58:38;;;;;;;42.78;40.17;;;;;;;;;;5033635;28;20029;-60
2023/12/17 13:01:03;;;;;;;43.38;40.83;;;;;;;;;;5032921;28;20034;-58
2023/12/17 13:03:29;;;;;;;46.00;43.40;;;;;;;;;;5031592;28;20121;-58
2023/12/17 13:05:54;;;;;;;48.85;45.83;;;;;;;;;;5029878;28;20193;-58
2023/12/17 13:08:20;;;;;;;45.83;43.00;;;;;;;;;;5030838;28;20528;-58
2023/12/17 13:10:46;;;;;;;43.35;40.95;;;;;;;;;;5018615;28;20128;-58
2023/12/17 13:13:11;;;;;;;43.25;40.95;;;;;;;;;;5015230;28;20033;-58
2023/12/17 13:15:37;;;;;;;45.40;42.08;;;;;;;;;;5025327;28;20094;-59
2023/12/17 13:18:02;;;;;;;44.50;41.58;;;;;;;;;;5034809;28;20041;-58
2023/12/17 13:20:28;;;;;;;46.45;43.47;;;;;;;;;;5028876;28;20075;-58
2023/12/17 13:22:55;;;;;;;40.90;38.40;;;;;;;;;;5030610;28;20107;-56
2023/12/17 13:25:21;;;;;;;40.22;37.90;;;;;;;;;;5029976;28;20029;-59
2023/12/17 13:27:46;;;;;;;39.25;37.05;;;;;;;;;;5034782;28;20029;-59
2023/12/17 13:30:12;;;;;;;40.05;37.67;;;;;;;;;;5032069;28;20052;-60
2023/12/17 13:32:39;;;;;;;38.10;35.95;;;;;;;;;;5030131;28;20041;-59
2023/12/17 13:35:05;;;;;;;40.67;38.28;;;;;;;;;;5030605;28;20044;-59
2023/12/17 13:37:30;;;;;;;39.72;37.50;;;;;;;;;;5030580;28;20028;-59
2023/12/17 13:39:55;;;;;;;39.95;37.60;;;;;;;;;;5028130;28;20110;-60
2023/12/17 13:42:21;;;;;;;40.85;38.47;;;;;;;;;;5027449;28;20052;-60
2023/12/17 13:44:46;;;;;;;43.08;39.92;;;;;;;;;;5029068;28;20033;-60
2023/12/17 13:47:12;;;;;;;41.92;39.53;;;;;;;;;;5032809;28;20024;-61
2023/12/17 13:49:37;;;;;;;43.70;41.30;;;;;;;;;;5030657;28;20057;-60
2023/12/17 13:52:03;;;;;;;40.70;38.53;;;;;;;;;;5031291;28;20033;-60
2023/12/17 13:54:29;;;;;;;43.80;41.40;;;;;;;;;;5032965;28;20098;-60
2023/12/17 13:56:54;;;;;;;42.63;40.33;;;;;;;;;;5027239;28;20447;-60
2023/12/17 13:59:20;;;;;;;41.70;39.40;;;;;;;;;;5031578;28;20664;-60
2023/12/17 14:01:47;;;;;;;44.33;41.88;;;;;;;;;;5031716;28;20029;-60
2023/12/17 14:04:12;;;;;;;41.85;39.45;;;;;;;;;;5028045;28;20486;-60
2023/12/17 14:06:37;;;;;;;43.13;40.67;;;;;;;;;;5025479;28;20041;-60
2023/12/17 14:09:03;;;;;;;43.10;40.63;;;;;;;;;;5029343;28;20470;-60